sensor_id;sensor_type;location;lat;lon;timestamp;temperature;humidity
23540;DHT22;11947;50.810;4.394;2022-07-10T00:01:47;15.90;99.90
23540;DHT22;11947;50.810;4.394;2022-07-10T00:04:13;15.90;99.90
23540;DHT22;11947;50.810;4.394;2022-07-10T00:06:39;16.00;99.90
23540;DHT22;11947;50.810;4.394;2022-07-10T00:09:07;15.90;99.90
23540;DHT22;11947;50.810;4.394;2022-07-10T00:11:33;15.90;99.90
23540;DHT22;11947;50.810;4.394;2022-07-10T00:13:58;15.80;99.90
23540;DHT22;11947;50.810;4.394;2022-07-10T00:16:24;15.90;99.90
23540;DHT22;11947;50.810;4.394;2022-07-10T00:18:50;15.80;99.90
23540;DHT22;11947;50.810;4.394;2022-07-10T00:21:16;15.80;99.90
23540;DHT22;11947;50.810;4.394;2022-07-10T00:23:42;15.80;99.90
23540;DHT22;11947;50.810;4.394;2022-07-10T00:26:08;15.80;99.90
23540;DHT22;11947;50.810;4.394;2022-07-10T00:28:34;15.80;99.90
23540;DHT22;11947;50.810;4.394;2022-07-10T00:31:02;15.90;99.90
23540;DHT22;11947;50.810;4.394;2022-07-10T00:33:27;15.90;99.90
23540;DHT22;11947;50.810;4.394;2022-07-10T00:35:53;15.70;99.90
23540;DHT22;11947;50.810;4.394;2022-07-10T00:38:19;15.80;99.90
23540;DHT22;11947;50.810;4.394;2022-07-10T00:40:45;15.70;99.90
23540;DHT22;11947;50.810;4.394;2022-07-10T00:43:10;15.70;99.90
23540;DHT22;11947;50.810;4.394;2022-07-10T00:45:36;15.80;99.90
23540;DHT22;11947;50.810;4.394;2022-07-10T00:48:02;15.80;99.90
23540;DHT22;11947;50.810;4.394;2022-07-10T00:50:28;15.70;99.90
23540;DHT22;11947;50.810;4.394;2022-07-10T00:52:54;15.80;99.90
23540;DHT22;11947;50.810;4.394;2022-07-10T00:55:21;15.70;99.90
23540;DHT22;11947;50.810;4.394;2022-07-10T00:57:47;15.70;99.90
23540;DHT22;11947;50.810;4.394;2022-07-10T01:00:13;15.60;99.90
23540;DHT22;11947;50.810;4.394;2022-07-10T01:02:43;15.50;99.90
23540;DHT22;11947;50.810;4.394;2022-07-10T01:05:09;15.50;99.90
23540;DHT22;11947;50.810;4.394;2022-07-10T01:07:35;15.40;99.90
23540;DHT22;11947;50.810;4.394;2022-07-10T01:10:02;15.50;99.90
23540;DHT22;11947;50.810;4.394;2022-07-10T01:12:28;15.50;99.90
23540;DHT22;11947;50.810;4.394;2022-07-10T01:14:55;15.40;99.90
23540;DHT22;11947;50.810;4.394;2022-07-10T01:17:21;15.40;99.90
23540;DHT22;11947;50.810;4.394;2022-07-10T01:19:48;15.40;99.90
23540;DHT22;11947;50.810;4.394;2022-07-10T01:22:13;15.40;99.90
23540;DHT22;11947;50.810;4.394;2022-07-10T01:24:39;15.40;99.90
23540;DHT22;11947;50.810;4.394;2022-07-10T01:27:05;15.40;99.90
23540;DHT22;11947;50.810;4.394;2022-07-10T01:29:30;15.40;99.90
23540;DHT22;11947;50.810;4.394;2022-07-10T01:31:57;15.40;99.90
23540;DHT22;11947;50.810;4.394;2022-07-10T01:34:26;15.40;99.90
23540;DHT22;11947;50.810;4.394;2022-07-10T01:36:52;15.30;99.90
23540;DHT22;11947;50.810;4.394;2022-07-10T01:39:18;15.30;99.90
23540;DHT22;11947;50.810;4.394;2022-07-10T01:41:43;15.40;99.90
23540;DHT22;11947;50.810;4.394;2022-07-10T01:44:09;15.30;99.90
23540;DHT22;11947;50.810;4.394;2022-07-10T01:46:35;15.50;99.90
23540;DHT22;11947;50.810;4.394;2022-07-10T01:49:00;15.40;99.90
23540;DHT22;11947;50.810;4.394;2022-07-10T01:51:26;15.40;99.90
23540;DHT22;11947;50.810;4.394;2022-07-10T01:53:51;15.30;99.90
23540;DHT22;11947;50.810;4.394;2022-07-10T01:56:17;15.30;99.90
23540;DHT22;11947;50.810;4.394;2022-07-10T01:58:43;15.30;99.90
23540;DHT22;11947;50.810;4.394;2022-07-10T02:01:09;15.30;99.90
23540;DHT22;11947;50.810;4.394;2022-07-10T02:03:35;15.30;99.90
23540;DHT22;11947;50.810;4.394;2022-07-10T02:06:27;15.40;99.90
23540;DHT22;11947;50.810;4.394;2022-07-10T02:08:52;15.30;99.90
23540;DHT22;11947;50.810;4.394;2022-07-10T02:11:18;15.30;99.90
23540;DHT22;11947;50.810;4.394;2022-07-10T02:13:44;15.30;99.90
23540;DHT22;11947;50.810;4.394;2022-07-10T02:16:10;15.20;99.90
23540;DHT22;11947;50.810;4.394;2022-07-10T02:18:36;15.10;99.90
23540;DHT22;11947;50.810;4.394;2022-07-10T02:21:01;15.10;99.90
23540;DHT22;11947;50.810;4.394;2022-07-10T02:23:27;15.20;99.90
23540;DHT22;11947;50.810;4.394;2022-07-10T02:25:53;15.10;99.90
23540;DHT22;11947;50.810;4.394;2022-07-10T02:28:19;15.20;99.90
23540;DHT22;11947;50.810;4.394;2022-07-10T02:30:45;15.10;99.90
23540;DHT22;11947;50.810;4.394;2022-07-10T02:33:10;15.20;99.90
23540;DHT22;11947;50.810;4.394;2022-07-10T02:35:36;15.20;99.90
23540;DHT22;11947;50.810;4.394;2022-07-10T02:38:01;15.10;99.90
23540;DHT22;11947;50.810;4.394;2022-07-10T02:40:27;15.20;99.90
23540;DHT22;11947;50.810;4.394;2022-07-10T02:42:53;15.10;99.90
23540;DHT22;11947;50.810;4.394;2022-07-10T02:45:18;15.10;99.90
23540;DHT22;11947;50.810;4.394;2022-07-10T02:47:44;15.00;99.90
23540;DHT22;11947;50.810;4.394;2022-07-10T02:50:09;15.00;99.90
23540;DHT22;11947;50.810;4.394;2022-07-10T02:52:38;15.00;99.90
23540;DHT22;11947;50.810;4.394;2022-07-10T02:55:04;15.00;99.90
23540;DHT22;11947;50.810;4.394;2022-07-10T02:57:30;15.00;99.90
23540;DHT22;11947;50.810;4.394;2022-07-10T02:59:55;14.90;99.90
23540;DHT22;11947;50.810;4.394;2022-07-10T03:02:21;14.90;99.90
23540;DHT22;11947;50.810;4.394;2022-07-10T03:04:46;14.80;99.90
23540;DHT22;11947;50.810;4.394;2022-07-10T03:07:12;14.80;99.90
23540;DHT22;11947;50.810;4.394;2022-07-10T03:09:38;14.80;99.90
23540;DHT22;11947;50.810;4.394;2022-07-10T03:12:04;14.90;99.90
23540;DHT22;11947;50.810;4.394;2022-07-10T03:14:29;14.90;99.90
23540;DHT22;11947;50.810;4.394;2022-07-10T03:16:55;14.90;99.90
23540;DHT22;11947;50.810;4.394;2022-07-10T03:19:20;14.70;99.90
23540;DHT22;11947;50.810;4.394;2022-07-10T03:21:46;14.70;99.90
23540;DHT22;11947;50.810;4.394;2022-07-10T03:24:12;14.80;99.90
23540;DHT22;11947;50.810;4.394;2022-07-10T03:26:38;14.80;99.90
23540;DHT22;11947;50.810;4.394;2022-07-10T03:29:04;14.90;99.90
23540;DHT22;11947;50.810;4.394;2022-07-10T03:31:29;14.80;99.90
23540;DHT22;11947;50.810;4.394;2022-07-10T03:33:55;14.80;99.90
23540;DHT22;11947;50.810;4.394;2022-07-10T03:36:20;14.90;99.90
23540;DHT22;11947;50.810;4.394;2022-07-10T03:38:46;14.80;99.90
23540;DHT22;11947;50.810;4.394;2022-07-10T03:41:13;14.80;99.90
23540;DHT22;11947;50.810;4.394;2022-07-10T03:43:39;14.80;99.90
23540;DHT22;11947;50.810;4.394;2022-07-10T03:46:04;14.70;99.90
23540;DHT22;11947;50.810;4.394;2022-07-10T03:48:30;14.70;99.90
23540;DHT22;11947;50.810;4.394;2022-07-10T03:50:56;14.80;99.90
23540;DHT22;11947;50.810;4.394;2022-07-10T03:53:21;14.70;99.90
23540;DHT22;11947;50.810;4.394;2022-07-10T03:55:47;14.70;99.90
23540;DHT22;11947;50.810;4.394;2022-07-10T03:58:12;14.70;99.90
23540;DHT22;11947;50.810;4.394;2022-07-10T04:00:38;14.60;99.90
23540;DHT22;11947;50.810;4.394;2022-07-10T04:03:06;14.80;99.90
23540;DHT22;11947;50.810;4.394;2022-07-10T04:05:32;14.70;99.90
23540;DHT22;11947;50.810;4.394;2022-07-10T04:07:59;14.80;99.90
23540;DHT22;11947;50.810;4.394;2022-07-10T04:10:29;14.80;99.90
23540;DHT22;11947;50.810;4.394;2022-07-10T04:12:55;14.80;99.90
23540;DHT22;11947;50.810;4.394;2022-07-10T04:15:21;14.80;99.90
23540;DHT22;11947;50.810;4.394;2022-07-10T04:17:48;14.70;99.90
23540;DHT22;11947;50.810;4.394;2022-07-10T04:20:15;14.60;99.90
23540;DHT22;11947;50.810;4.394;2022-07-10T04:22:41;14.70;99.90
23540;DHT22;11947;50.810;4.394;2022-07-10T04:25:07;14.90;99.90
23540;DHT22;11947;50.810;4.394;2022-07-10T04:27:33;14.70;99.90
23540;DHT22;11947;50.810;4.394;2022-07-10T04:29:59;14.70;99.90
23540;DHT22;11947;50.810;4.394;2022-07-10T04:32:25;14.70;99.90
23540;DHT22;11947;50.810;4.394;2022-07-10T04:34:51;14.70;99.90
23540;DHT22;11947;50.810;4.394;2022-07-10T04:37:16;14.70;99.90
23540;DHT22;11947;50.810;4.394;2022-07-10T04:39:42;14.70;99.90
23540;DHT22;11947;50.810;4.394;2022-07-10T04:42:10;14.80;99.90
23540;DHT22;11947;50.810;4.394;2022-07-10T04:44:36;14.90;99.90
23540;DHT22;11947;50.810;4.394;2022-07-10T04:47:02;15.00;99.90
23540;DHT22;11947;50.810;4.394;2022-07-10T04:49:28;15.10;99.90
23540;DHT22;11947;50.810;4.394;2022-07-10T04:51:54;15.10;99.90
23540;DHT22;11947;50.810;4.394;2022-07-10T04:54:21;15.20;99.90
23540;DHT22;11947;50.810;4.394;2022-07-10T04:56:47;15.20;99.90
23540;DHT22;11947;50.810;4.394;2022-07-10T04:59:13;15.30;99.90
23540;DHT22;11947;50.810;4.394;2022-07-10T05:01:38;15.30;99.90
23540;DHT22;11947;50.810;4.394;2022-07-10T05:04:04;15.40;99.90
23540;DHT22;11947;50.810;4.394;2022-07-10T05:06:30;15.60;99.90
23540;DHT22;11947;50.810;4.394;2022-07-10T05:08:56;15.50;99.90
23540;DHT22;11947;50.810;4.394;2022-07-10T05:11:22;15.60;99.90
23540;DHT22;11947;50.810;4.394;2022-07-10T05:13:48;15.80;99.90
23540;DHT22;11947;50.810;4.394;2022-07-10T05:16:15;15.80;99.90
23540;DHT22;11947;50.810;4.394;2022-07-10T05:18:40;15.90;99.90
23540;DHT22;11947;50.810;4.394;2022-07-10T05:21:07;16.00;99.90
23540;DHT22;11947;50.810;4.394;2022-07-10T05:23:33;16.10;99.90
23540;DHT22;11947;50.810;4.394;2022-07-10T05:25:58;16.20;99.90
23540;DHT22;11947;50.810;4.394;2022-07-10T05:28:24;16.20;99.90
23540;DHT22;11947;50.810;4.394;2022-07-10T05:30:49;16.30;99.90
23540;DHT22;11947;50.810;4.394;2022-07-10T05:33:16;16.40;99.90
23540;DHT22;11947;50.810;4.394;2022-07-10T05:35:41;16.60;99.90
23540;DHT22;11947;50.810;4.394;2022-07-10T05:38:07;16.70;99.90
23540;DHT22;11947;50.810;4.394;2022-07-10T05:40:33;16.80;99.90
23540;DHT22;11947;50.810;4.394;2022-07-10T05:42:59;16.90;99.90
23540;DHT22;11947;50.810;4.394;2022-07-10T05:45:25;16.90;99.90
23540;DHT22;11947;50.810;4.394;2022-07-10T05:47:50;17.00;99.90
23540;DHT22;11947;50.810;4.394;2022-07-10T05:50:16;17.30;99.90
23540;DHT22;11947;50.810;4.394;2022-07-10T05:52:42;17.30;99.90
23540;DHT22;11947;50.810;4.394;2022-07-10T05:55:08;17.50;99.90
23540;DHT22;11947;50.810;4.394;2022-07-10T05:57:35;17.30;99.90
23540;DHT22;11947;50.810;4.394;2022-07-10T06:00:01;17.30;99.90
23540;DHT22;11947;50.810;4.394;2022-07-10T06:02:29;17.30;99.90
23540;DHT22;11947;50.810;4.394;2022-07-10T06:04:55;17.30;99.90
23540;DHT22;11947;50.810;4.394;2022-07-10T06:07:20;17.30;99.90
23540;DHT22;11947;50.810;4.394;2022-07-10T06:09:46;17.40;99.90
23540;DHT22;11947;50.810;4.394;2022-07-10T06:12:12;17.50;99.90
23540;DHT22;11947;50.810;4.394;2022-07-10T06:14:37;17.60;99.90
23540;DHT22;11947;50.810;4.394;2022-07-10T06:17:03;17.80;99.90
23540;DHT22;11947;50.810;4.394;2022-07-10T06:19:29;17.90;99.90
23540;DHT22;11947;50.810;4.394;2022-07-10T06:21:54;18.10;99.90
23540;DHT22;11947;50.810;4.394;2022-07-10T06:24:39;18.30;99.90
23540;DHT22;11947;50.810;4.394;2022-07-10T06:27:05;18.60;99.90
23540;DHT22;11947;50.810;4.394;2022-07-10T06:29:31;18.60;99.90
23540;DHT22;11947;50.810;4.394;2022-07-10T06:31:56;18.70;99.90
23540;DHT22;11947;50.810;4.394;2022-07-10T06:34:22;18.80;99.90
23540;DHT22;11947;50.810;4.394;2022-07-10T06:36:48;18.90;99.90
23540;DHT22;11947;50.810;4.394;2022-07-10T06:39:13;19.10;99.90
23540;DHT22;11947;50.810;4.394;2022-07-10T06:41:39;19.20;99.90
23540;DHT22;11947;50.810;4.394;2022-07-10T06:44:05;19.30;99.90
23540;DHT22;11947;50.810;4.394;2022-07-10T06:46:31;19.40;99.90
23540;DHT22;11947;50.810;4.394;2022-07-10T06:48:58;19.50;99.90
23540;DHT22;11947;50.810;4.394;2022-07-10T06:51:24;19.50;99.90
23540;DHT22;11947;50.810;4.394;2022-07-10T06:53:49;19.60;99.90
23540;DHT22;11947;50.810;4.394;2022-07-10T06:56:15;19.50;99.90
23540;DHT22;11947;50.810;4.394;2022-07-10T06:58:41;19.60;99.90
23540;DHT22;11947;50.810;4.394;2022-07-10T07:01:07;19.40;99.90
23540;DHT22;11947;50.810;4.394;2022-07-10T07:03:33;19.40;99.90
23540;DHT22;11947;50.810;4.394;2022-07-10T07:05:58;19.50;99.90
23540;DHT22;11947;50.810;4.394;2022-07-10T07:08:24;19.60;99.90
23540;DHT22;11947;50.810;4.394;2022-07-10T07:10:49;19.70;99.90
23540;DHT22;11947;50.810;4.394;2022-07-10T07:13:15;19.80;99.90
23540;DHT22;11947;50.810;4.394;2022-07-10T07:15:41;19.90;99.90
23540;DHT22;11947;50.810;4.394;2022-07-10T07:18:12;20.00;99.90
23540;DHT22;11947;50.810;4.394;2022-07-10T07:20:41;20.10;99.90
23540;DHT22;11947;50.810;4.394;2022-07-10T07:23:25;20.20;99.90
23540;DHT22;11947;50.810;4.394;2022-07-10T07:25:51;20.20;99.90
23540;DHT22;11947;50.810;4.394;2022-07-10T07:28:17;20.40;99.90
23540;DHT22;11947;50.810;4.394;2022-07-10T07:30:46;20.50;99.90
23540;DHT22;11947;50.810;4.394;2022-07-10T07:33:11;20.70;99.90
23540;DHT22;11947;50.810;4.394;2022-07-10T07:35:37;20.70;99.90
23540;DHT22;11947;50.810;4.394;2022-07-10T07:38:04;20.80;99.90
23540;DHT22;11947;50.810;4.394;2022-07-10T07:40:31;21.00;99.90
23540;DHT22;11947;50.810;4.394;2022-07-10T07:42:57;21.00;99.90
23540;DHT22;11947;50.810;4.394;2022-07-10T07:45:23;21.10;99.90
23540;DHT22;11947;50.810;4.394;2022-07-10T07:47:51;21.20;99.90
23540;DHT22;11947;50.810;4.394;2022-07-10T07:50:19;21.30;99.90
23540;DHT22;11947;50.810;4.394;2022-07-10T07:52:46;21.40;99.90
23540;DHT22;11947;50.810;4.394;2022-07-10T07:55:13;21.40;99.90
23540;DHT22;11947;50.810;4.394;2022-07-10T07:57:40;21.50;99.90
23540;DHT22;11947;50.810;4.394;2022-07-10T08:00:07;21.50;99.90
23540;DHT22;11947;50.810;4.394;2022-07-10T08:02:33;21.50;99.90
23540;DHT22;11947;50.810;4.394;2022-07-10T08:04:59;21.60;99.90
23540;DHT22;11947;50.810;4.394;2022-07-10T08:07:44;21.70;99.90
23540;DHT22;11947;50.810;4.394;2022-07-10T08:10:14;22.10;99.90
23540;DHT22;11947;50.810;4.394;2022-07-10T08:12:40;22.20;99.90
23540;DHT22;11947;50.810;4.394;2022-07-10T08:15:15;22.60;99.90
23540;DHT22;11947;50.810;4.394;2022-07-10T08:17:41;22.70;99.90
23540;DHT22;11947;50.810;4.394;2022-07-10T08:20:10;23.00;99.90
23540;DHT22;11947;50.810;4.394;2022-07-10T08:22:36;23.50;99.90
23540;DHT22;11947;50.810;4.394;2022-07-10T08:25:02;23.70;99.90
23540;DHT22;11947;50.810;4.394;2022-07-10T08:27:28;23.50;99.90
23540;DHT22;11947;50.810;4.394;2022-07-10T08:29:54;23.30;99.90
23540;DHT22;11947;50.810;4.394;2022-07-10T08:32:19;23.30;99.90
23540;DHT22;11947;50.810;4.394;2022-07-10T08:34:48;23.40;99.90
23540;DHT22;11947;50.810;4.394;2022-07-10T08:37:14;23.50;99.90
23540;DHT22;11947;50.810;4.394;2022-07-10T08:39:40;23.90;99.90
23540;DHT22;11947;50.810;4.394;2022-07-10T08:42:10;24.00;99.90
23540;DHT22;11947;50.810;4.394;2022-07-10T08:44:36;24.20;99.90
23540;DHT22;11947;50.810;4.394;2022-07-10T08:47:03;24.20;99.90
23540;DHT22;11947;50.810;4.394;2022-07-10T08:49:29;24.30;99.90
23540;DHT22;11947;50.810;4.394;2022-07-10T08:52:30;24.60;99.90
23540;DHT22;11947;50.810;4.394;2022-07-10T08:54:57;24.70;99.90
23540;DHT22;11947;50.810;4.394;2022-07-10T08:57:24;24.80;99.90
23540;DHT22;11947;50.810;4.394;2022-07-10T08:59:51;24.40;99.90
23540;DHT22;11947;50.810;4.394;2022-07-10T09:02:16;24.60;99.90
23540;DHT22;11947;50.810;4.394;2022-07-10T09:04:42;25.00;99.90
23540;DHT22;11947;50.810;4.394;2022-07-10T09:07:07;24.90;99.90
23540;DHT22;11947;50.810;4.394;2022-07-10T09:09:53;25.00;99.90
23540;DHT22;11947;50.810;4.394;2022-07-10T09:12:21;25.30;99.90
23540;DHT22;11947;50.810;4.394;2022-07-10T09:14:47;25.40;99.90
23540;DHT22;11947;50.810;4.394;2022-07-10T09:17:13;25.10;99.90
23540;DHT22;11947;50.810;4.394;2022-07-10T09:19:39;25.20;99.90
23540;DHT22;11947;50.810;4.394;2022-07-10T09:22:09;25.50;99.90
23540;DHT22;11947;50.810;4.394;2022-07-10T09:24:39;25.70;99.90
23540;DHT22;11947;50.810;4.394;2022-07-10T09:27:06;25.90;99.90
23540;DHT22;11947;50.810;4.394;2022-07-10T09:29:44;25.50;99.90
23540;DHT22;11947;50.810;4.394;2022-07-10T09:32:09;25.60;99.90
23540;DHT22;11947;50.810;4.394;2022-07-10T09:37:23;26.20;99.70
23540;DHT22;11947;50.810;4.394;2022-07-10T09:40:02;27.00;99.90
23540;DHT22;11947;50.810;4.394;2022-07-10T09:47:58;27.00;96.90
23540;DHT22;11947;50.810;4.394;2022-07-10T09:50:33;27.20;97.00
23540;DHT22;11947;50.810;4.394;2022-07-10T09:53:04;27.40;96.30
23540;DHT22;11947;50.810;4.394;2022-07-10T09:55:32;27.50;96.50
23540;DHT22;11947;50.810;4.394;2022-07-10T09:57:59;27.60;96.10
23540;DHT22;11947;50.810;4.394;2022-07-10T10:00:31;27.70;97.80
23540;DHT22;11947;50.810;4.394;2022-07-10T10:02:59;27.70;95.80
23540;DHT22;11947;50.810;4.394;2022-07-10T10:05:33;27.30;96.10
23540;DHT22;11947;50.810;4.394;2022-07-10T10:08:12;26.90;95.50
23540;DHT22;11947;50.810;4.394;2022-07-10T10:10:50;26.70;96.60
23540;DHT22;11947;50.810;4.394;2022-07-10T10:13:20;26.70;96.40
23540;DHT22;11947;50.810;4.394;2022-07-10T10:15:47;27.10;95.50
23540;DHT22;11947;50.810;4.394;2022-07-10T10:18:25;27.20;96.00
23540;DHT22;11947;50.810;4.394;2022-07-10T10:20:53;27.10;96.50
23540;DHT22;11947;50.810;4.394;2022-07-10T10:23:21;26.90;95.40
23540;DHT22;11947;50.810;4.394;2022-07-10T10:25:48;26.70;97.10
23540;DHT22;11947;50.810;4.394;2022-07-10T10:28:14;26.60;96.60
23540;DHT22;11947;50.810;4.394;2022-07-10T10:30:43;26.70;96.80
23540;DHT22;11947;50.810;4.394;2022-07-10T10:36:01;25.90;97.30
23540;DHT22;11947;50.810;4.394;2022-07-10T10:41:23;27.60;96.60
23540;DHT22;11947;50.810;4.394;2022-07-10T10:49:23;28.10;95.30
23540;DHT22;11947;50.810;4.394;2022-07-10T10:52:04;28.30;94.50
23540;DHT22;11947;50.810;4.394;2022-07-10T10:59:58;26.60;97.30
23540;DHT22;11947;50.810;4.394;2022-07-10T11:02:36;27.20;97.50
23540;DHT22;11947;50.810;4.394;2022-07-10T11:07:55;28.60;95.20
23540;DHT22;11947;50.810;4.394;2022-07-10T11:10:41;28.70;94.00
23540;DHT22;11947;50.810;4.394;2022-07-10T11:13:17;29.00;94.10
23540;DHT22;11947;50.810;4.394;2022-07-10T11:15:48;29.10;93.30
23540;DHT22;11947;50.810;4.394;2022-07-10T11:18:16;29.20;94.30
23540;DHT22;11947;50.810;4.394;2022-07-10T11:20:47;29.30;94.00
23540;DHT22;11947;50.810;4.394;2022-07-10T11:31:09;29.90;92.70
23540;DHT22;11947;50.810;4.394;2022-07-10T11:33:48;30.10;92.30
23540;DHT22;11947;50.810;4.394;2022-07-10T11:36:15;29.70;92.00
23540;DHT22;11947;50.810;4.394;2022-07-10T11:38:42;29.60;92.20
23540;DHT22;11947;50.810;4.394;2022-07-10T11:41:20;29.40;92.40
23540;DHT22;11947;50.810;4.394;2022-07-10T11:43:53;29.70;92.50
23540;DHT22;11947;50.810;4.394;2022-07-10T11:46:20;29.90;92.20
23540;DHT22;11947;50.810;4.394;2022-07-10T11:48:47;30.10;91.80
23540;DHT22;11947;50.810;4.394;2022-07-10T11:51:38;30.20;91.60
23540;DHT22;11947;50.810;4.394;2022-07-10T11:54:12;30.50;91.50
23540;DHT22;11947;50.810;4.394;2022-07-10T11:56:40;30.50;91.30
23540;DHT22;11947;50.810;4.394;2022-07-10T11:59:13;30.70;91.50
23540;DHT22;11947;50.810;4.394;2022-07-10T12:01:49;30.40;90.90
23540;DHT22;11947;50.810;4.394;2022-07-10T12:04:18;30.80;89.50
23540;DHT22;11947;50.810;4.394;2022-07-10T12:06:46;31.50;89.30
23540;DHT22;11947;50.810;4.394;2022-07-10T12:09:14;31.90;88.70
23540;DHT22;11947;50.810;4.394;2022-07-10T12:11:40;32.80;89.30
23540;DHT22;11947;50.810;4.394;2022-07-10T12:16:41;33.30;84.60
23540;DHT22;11947;50.810;4.394;2022-07-10T12:19:10;33.20;83.30
23540;DHT22;11947;50.810;4.394;2022-07-10T12:21:36;32.40;83.50
23540;DHT22;11947;50.810;4.394;2022-07-10T12:24:03;31.60;84.90
23540;DHT22;11947;50.810;4.394;2022-07-10T12:26:34;31.00;86.90
23540;DHT22;11947;50.810;4.394;2022-07-10T12:29:00;30.80;87.90
23540;DHT22;11947;50.810;4.394;2022-07-10T12:31:31;30.80;89.50
23540;DHT22;11947;50.810;4.394;2022-07-10T12:34:04;30.50;88.00
23540;DHT22;11947;50.810;4.394;2022-07-10T12:36:50;30.00;89.50
23540;DHT22;11947;50.810;4.394;2022-07-10T12:39:18;29.80;90.60
23540;DHT22;11947;50.810;4.394;2022-07-10T12:42:00;30.10;90.80
23540;DHT22;11947;50.810;4.394;2022-07-10T12:44:39;30.70;88.10
23540;DHT22;11947;50.810;4.394;2022-07-10T12:49:55;30.90;89.70
23540;DHT22;11947;50.810;4.394;2022-07-10T12:52:28;31.20;88.00
23540;DHT22;11947;50.810;4.394;2022-07-10T13:00:13;30.40;88.60
23540;DHT22;11947;50.810;4.394;2022-07-10T13:02:39;30.80;87.50
23540;DHT22;11947;50.810;4.394;2022-07-10T13:05:05;31.20;86.50
23540;DHT22;11947;50.810;4.394;2022-07-10T13:07:32;31.40;85.70
23540;DHT22;11947;50.810;4.394;2022-07-10T13:10:04;31.40;87.60
23540;DHT22;11947;50.810;4.394;2022-07-10T13:12:29;32.10;85.60
23540;DHT22;11947;50.810;4.394;2022-07-10T13:14:55;32.80;84.90
23540;DHT22;11947;50.810;4.394;2022-07-10T13:17:21;33.20;81.20
23540;DHT22;11947;50.810;4.394;2022-07-10T13:19:47;33.10;82.20
23540;DHT22;11947;50.810;4.394;2022-07-10T13:22:12;33.90;80.20
23540;DHT22;11947;50.810;4.394;2022-07-10T13:24:38;34.30;79.20
23540;DHT22;11947;50.810;4.394;2022-07-10T13:27:04;33.90;79.70
23540;DHT22;11947;50.810;4.394;2022-07-10T13:29:29;34.80;77.80
23540;DHT22;11947;50.810;4.394;2022-07-10T13:31:55;36.30;75.90
23540;DHT22;11947;50.810;4.394;2022-07-10T13:34:21;37.40;72.10
23540;DHT22;11947;50.810;4.394;2022-07-10T13:36:46;38.10;69.10
23540;DHT22;11947;50.810;4.394;2022-07-10T13:39:12;39.00;67.20
23540;DHT22;11947;50.810;4.394;2022-07-10T13:41:38;40.60;63.70
23540;DHT22;11947;50.810;4.394;2022-07-10T13:44:03;42.90;59.20
23540;DHT22;11947;50.810;4.394;2022-07-10T13:46:29;43.80;56.90
23540;DHT22;11947;50.810;4.394;2022-07-10T13:48:55;42.50;56.40
23540;DHT22;11947;50.810;4.394;2022-07-10T13:51:22;40.70;58.50
23540;DHT22;11947;50.810;4.394;2022-07-10T13:53:47;39.50;58.60
23540;DHT22;11947;50.810;4.394;2022-07-10T13:56:13;39.50;59.70
23540;DHT22;11947;50.810;4.394;2022-07-10T13:58:39;40.50;59.30
23540;DHT22;11947;50.810;4.394;2022-07-10T14:01:04;41.70;56.30
23540;DHT22;11947;50.810;4.394;2022-07-10T14:03:30;41.10;56.70
23540;DHT22;11947;50.810;4.394;2022-07-10T14:05:57;40.00;57.80
23540;DHT22;11947;50.810;4.394;2022-07-10T14:08:23;38.10;60.20
23540;DHT22;11947;50.810;4.394;2022-07-10T14:10:49;37.20;61.80
23540;DHT22;11947;50.810;4.394;2022-07-10T14:13:14;36.70;62.80
23540;DHT22;11947;50.810;4.394;2022-07-10T14:15:40;36.60;62.20
23540;DHT22;11947;50.810;4.394;2022-07-10T14:18:10;36.50;64.00
23540;DHT22;11947;50.810;4.394;2022-07-10T14:20:35;36.10;63.80
23540;DHT22;11947;50.810;4.394;2022-07-10T14:23:19;35.20;64.30
23540;DHT22;11947;50.810;4.394;2022-07-10T14:25:45;33.90;67.00
23540;DHT22;11947;50.810;4.394;2022-07-10T14:28:11;32.40;70.20
23540;DHT22;11947;50.810;4.394;2022-07-10T14:30:39;31.40;73.10
23540;DHT22;11947;50.810;4.394;2022-07-10T14:33:05;31.50;76.90
23540;DHT22;11947;50.810;4.394;2022-07-10T14:35:31;31.40;76.30
23540;DHT22;11947;50.810;4.394;2022-07-10T14:37:57;31.50;77.70
23540;DHT22;11947;50.810;4.394;2022-07-10T14:40:23;31.20;78.50
23540;DHT22;11947;50.810;4.394;2022-07-10T14:42:48;31.20;79.90
23540;DHT22;11947;50.810;4.394;2022-07-10T14:45:14;30.90;77.00
23540;DHT22;11947;50.810;4.394;2022-07-10T14:47:39;30.80;77.80
23540;DHT22;11947;50.810;4.394;2022-07-10T14:50:05;30.70;78.70
23540;DHT22;11947;50.810;4.394;2022-07-10T14:52:31;30.80;78.50
23540;DHT22;11947;50.810;4.394;2022-07-10T14:54:58;30.90;76.80
23540;DHT22;11947;50.810;4.394;2022-07-10T14:57:24;30.90;78.60
23540;DHT22;11947;50.810;4.394;2022-07-10T14:59:49;30.60;78.00
23540;DHT22;11947;50.810;4.394;2022-07-10T15:02:15;30.30;79.50
23540;DHT22;11947;50.810;4.394;2022-07-10T15:04:41;30.30;79.60
23540;DHT22;11947;50.810;4.394;2022-07-10T15:07:06;29.60;80.60
23540;DHT22;11947;50.810;4.394;2022-07-10T15:09:32;29.20;81.80
23540;DHT22;11947;50.810;4.394;2022-07-10T15:11:57;28.90;82.10
23540;DHT22;11947;50.810;4.394;2022-07-10T15:14:23;28.70;83.90
23540;DHT22;11947;50.810;4.394;2022-07-10T15:16:50;28.30;84.40
23540;DHT22;11947;50.810;4.394;2022-07-10T15:19:15;28.10;85.90
23540;DHT22;11947;50.810;4.394;2022-07-10T15:21:41;28.10;85.20
23540;DHT22;11947;50.810;4.394;2022-07-10T15:24:07;28.20;83.80
23540;DHT22;11947;50.810;4.394;2022-07-10T15:26:32;28.10;85.00
23540;DHT22;11947;50.810;4.394;2022-07-10T15:28:58;27.80;86.30
23540;DHT22;11947;50.810;4.394;2022-07-10T15:31:24;27.60;86.80
23540;DHT22;11947;50.810;4.394;2022-07-10T15:33:50;27.30;87.00
23540;DHT22;11947;50.810;4.394;2022-07-10T15:36:15;26.90;88.10
23540;DHT22;11947;50.810;4.394;2022-07-10T15:38:41;26.80;89.30
23540;DHT22;11947;50.810;4.394;2022-07-10T15:41:07;26.90;88.20
23540;DHT22;11947;50.810;4.394;2022-07-10T15:43:33;26.90;88.10
23540;DHT22;11947;50.810;4.394;2022-07-10T15:45:58;26.90;87.60
23540;DHT22;11947;50.810;4.394;2022-07-10T15:48:24;27.00;88.70
23540;DHT22;11947;50.810;4.394;2022-07-10T15:50:50;27.20;88.30
23540;DHT22;11947;50.810;4.394;2022-07-10T15:53:16;27.40;87.70
23540;DHT22;11947;50.810;4.394;2022-07-10T15:55:41;27.40;87.90
23540;DHT22;11947;50.810;4.394;2022-07-10T15:58:07;27.40;88.40
23540;DHT22;11947;50.810;4.394;2022-07-10T16:00:33;27.40;88.50
23540;DHT22;11947;50.810;4.394;2022-07-10T16:02:59;27.40;87.30
23540;DHT22;11947;50.810;4.394;2022-07-10T16:05:28;27.20;88.50
23540;DHT22;11947;50.810;4.394;2022-07-10T16:07:53;27.20;89.70
23540;DHT22;11947;50.810;4.394;2022-07-10T16:10:19;27.40;87.30
23540;DHT22;11947;50.810;4.394;2022-07-10T16:12:45;27.20;88.60
23540;DHT22;11947;50.810;4.394;2022-07-10T16:15:10;27.20;90.30
23540;DHT22;11947;50.810;4.394;2022-07-10T16:17:37;27.20;89.40